createdAt,value
2017-04-16T00:01:09.414Z,20.4
2017-04-16T00:02:18.458Z,20.43
2017-04-16T00:03:27.828Z,20.4
2017-04-16T00:04:37.210Z,20.36
2017-04-16T00:05:45.979Z,20.34
2017-04-16T00:06:55.047Z,20.43
2017-04-16T00:08:04.700Z,20.32
2017-04-16T00:09:14.449Z,20.36
2017-04-16T00:10:23.271Z,20.39
2017-04-16T00:11:32.560Z,20.32
2017-04-16T00:12:41.333Z,20.31
2017-04-16T00:13:50.727Z,20.4
2017-04-16T00:14:59.803Z,20.28
2017-04-16T00:16:08.568Z,20.32
2017-04-16T00:17:17.644Z,20.39
2017-04-16T00:18:26.416Z,20.36
2017-04-16T00:19:35.190Z,20.31
2017-04-16T00:20:44.532Z,20.4
2017-04-16T00:21:53.588Z,20.4
2017-04-16T00:23:02.363Z,20.37
2017-04-16T00:24:11.754Z,20.31
2017-04-16T00:25:20.526Z,20.28
2017-04-16T00:26:29.571Z,20.34
2017-04-16T00:27:38.319Z,20.32
2017-04-16T00:28:47.707Z,20.28
2017-04-16T00:29:56.496Z,20.28
2017-04-16T00:31:05.878Z,20.28
2017-04-16T00:32:15.252Z,20.25
2017-04-16T00:33:24.016Z,20.24
2017-04-16T00:34:33.095Z,20.25
2017-04-16T00:35:42.174Z,20.32
2017-04-16T00:36:51.877Z,20.25
2017-04-16T00:38:00.663Z,20.29
2017-04-16T00:39:10.045Z,20.25
2017-04-16T00:40:19.141Z,20.32
2017-04-16T00:41:28.178Z,20.19
2017-04-16T00:42:37.513Z,20.22
2017-04-16T00:43:46.869Z,20.29
2017-04-16T00:44:56.252Z,20.25
2017-04-16T00:46:05.652Z,20.26
2017-04-16T00:47:14.698Z,20.24
2017-04-16T00:48:24.042Z,20.18
2017-04-16T00:49:33.189Z,20.26
2017-04-16T00:50:42.865Z,20.28
2017-04-16T00:51:52.254Z,20.18
2017-04-16T00:53:01.432Z,20.22
2017-04-16T00:54:10.514Z,20.21
2017-04-16T00:55:19.921Z,20.26
2017-04-16T00:56:29.306Z,20.24
2017-04-16T00:57:38.384Z,20.21
2017-04-16T00:58:47.771Z,20.22
2017-04-16T00:59:57.771Z,20.14
2017-04-16T01:01:06.808Z,20.22
2017-04-16T01:02:15.852Z,20.16
2017-04-16T01:03:24.937Z,20.11
2017-04-16T01:04:34.021Z,20.19
2017-04-16T01:05:42.787Z,20.18
2017-04-16T01:06:51.878Z,20.1
2017-04-16T01:08:00.650Z,20.11
2017-04-16T01:09:09.734Z,20.16
2017-04-16T01:10:19.106Z,20.19
2017-04-16T01:11:28.165Z,20.1
2017-04-16T01:12:36.914Z,20.19
2017-04-16T01:13:46.628Z,20.14
2017-04-16T01:14:55.596Z,20.19
2017-04-16T01:16:04.375Z,20.22
2017-04-16T01:17:13.799Z,20.13
2017-04-16T01:18:23.179Z,20.18
2017-04-16T01:19:31.916Z,20.14
2017-04-16T01:20:40.970Z,20.06
2017-04-16T01:21:50.059Z,20.09
2017-04-16T01:22:59.122Z,20.09
2017-04-16T01:24:08.223Z,20.1
2017-04-16T01:25:17.305Z,20.16
2017-04-16T01:26:26.999Z,20.09
2017-04-16T01:27:35.775Z,20.14
2017-04-16T01:28:45.466Z,20.04
2017-04-16T01:29:54.537Z,20.03
2017-04-16T01:31:03.923Z,20.03
2017-04-16T01:32:13.602Z,20.02
2017-04-16T01:33:23.250Z,20.03
2017-04-16T01:34:32.302Z,20.06
2017-04-16T01:35:41.833Z,20.04
2017-04-16T01:36:51.826Z,20.1
2017-04-16T01:38:01.225Z,20.09
2017-04-16T01:39:10.889Z,20.03
2017-04-16T01:40:19.971Z,20.06
2017-04-16T01:41:28.747Z,20
2017-04-16T01:42:37.528Z,20.02
2017-04-16T01:43:46.913Z,20
2017-04-16T01:44:56.302Z,19.99
2017-04-16T01:46:05.979Z,20.07
2017-04-16T01:47:15.033Z,19.99
2017-04-16T01:48:24.107Z,20.06
2017-04-16T01:49:33.490Z,20.03
2017-04-16T01:50:42.821Z,20.03
2017-04-16T01:51:51.573Z,20.02
2017-04-16T01:53:00.652Z,20.04
2017-04-16T01:54:10.038Z,20.02
2017-04-16T01:55:19.425Z,20.06
2017-04-16T01:56:28.158Z,19.99
2017-04-16T01:57:36.900Z,20.02
2017-04-16T01:58:46.588Z,20.03
2017-04-16T01:59:56.280Z,20.1
2017-04-16T02:01:05.061Z,20.03
2017-04-16T02:02:14.456Z,20.02
2017-04-16T02:03:23.232Z,19.99
2017-04-16T02:04:32.313Z,20.06
2017-04-16T02:05:41.386Z,20
2017-04-16T02:06:50.462Z,20
2017-04-16T02:07:59.552Z,20.03
2017-04-16T02:09:08.633Z,20.02
2017-04-16T02:10:17.369Z,20.03
2017-04-16T02:11:26.378Z,20.03
2017-04-16T02:12:35.428Z,20.03
2017-04-16T02:13:44.204Z,19.99
2017-04-16T02:14:53.581Z,19.99
2017-04-16T02:16:02.669Z,20.04
2017-04-16T02:17:11.862Z,19.94
2017-04-16T02:18:20.684Z,20.03
2017-04-16T02:19:30.485Z,19.95
2017-04-16T02:20:39.537Z,19.92
2017-04-16T02:21:48.319Z,19.95
2017-04-16T02:22:57.098Z,19.94
2017-04-16T02:24:06.350Z,19.94
2017-04-16T02:25:15.405Z,19.96
2017-04-16T02:26:24.790Z,19.94
2017-04-16T02:27:33.850Z,19.94
2017-04-16T02:28:43.538Z,20
2017-04-16T02:29:52.515Z,19.96
2017-04-16T02:31:01.597Z,19.92
2017-04-16T02:32:10.945Z,19.95
2017-04-16T02:33:19.688Z,19.92
2017-04-16T02:34:28.761Z,19.99
2017-04-16T02:35:37.844Z,19.95
2017-04-16T02:36:46.612Z,19.95
2017-04-16T02:37:55.665Z,20
2017-04-16T02:39:04.744Z,19.94
2017-04-16T02:40:14.579Z,19.92
2017-04-16T02:41:23.646Z,19.99
2017-04-16T02:42:32.431Z,19.94
2017-04-16T02:43:42.108Z,19.79
2017-04-16T02:44:51.148Z,19.81
2017-04-16T02:46:00.192Z,19.95
2017-04-16T02:47:08.960Z,19.79
2017-04-16T02:48:18.344Z,19.79
2017-04-16T02:49:27.430Z,19.79
2017-04-16T02:50:36.814Z,19.82
2017-04-16T02:51:45.857Z,19.84
2017-04-16T02:52:55.177Z,19.85
2017-04-16T02:54:04.527Z,19.84
2017-04-16T02:55:13.601Z,19.84
2017-04-16T02:56:22.323Z,19.82
2017-04-16T02:57:31.351Z,19.82
2017-04-16T02:58:40.693Z,19.88
2017-04-16T02:59:50.368Z,19.82
2017-04-16T03:00:59.137Z,19.81
2017-04-16T03:02:08.201Z,19.85
2017-04-16T03:03:17.255Z,19.82
2017-04-16T03:04:26.012Z,19.94
2017-04-16T03:05:35.654Z,19.84
2017-04-16T03:06:44.387Z,19.84
2017-04-16T03:07:53.352Z,19.84
2017-04-16T03:09:02.862Z,19.88
2017-04-16T03:10:11.783Z,19.86
2017-04-16T03:11:20.510Z,19.84
2017-04-16T03:12:29.523Z,19.86
2017-04-16T03:13:39.338Z,19.81
2017-04-16T03:14:48.701Z,19.82
2017-04-16T03:15:58.367Z,19.82
2017-04-16T03:17:07.433Z,19.81
2017-04-16T03:18:16.505Z,19.81
2017-04-16T03:19:25.542Z,19.88
2017-04-16T03:20:34.604Z,19.84
2017-04-16T03:21:43.333Z,19.85
2017-04-16T03:22:52.377Z,19.82
2017-04-16T03:24:01.904Z,19.82
2017-04-16T03:25:10.639Z,19.82
2017-04-16T03:26:19.399Z,19.84
2017-04-16T03:27:28.163Z,19.89
2017-04-16T03:28:37.830Z,19.79
2017-04-16T03:29:46.912Z,19.82
2017-04-16T03:30:56.289Z,19.82
2017-04-16T03:32:05.043Z,19.77
2017-04-16T03:33:14.124Z,19.77
2017-04-16T03:34:24.001Z,19.88
2017-04-16T03:35:32.768Z,19.76
2017-04-16T03:36:41.835Z,19.84
2017-04-16T03:37:51.208Z,19.73
2017-04-16T03:39:00.241Z,19.79
2017-04-16T03:40:09.297Z,19.77
2017-04-16T03:41:18.963Z,19.79
2017-04-16T03:42:27.725Z,19.85
2017-04-16T03:43:36.797Z,19.77
2017-04-16T03:44:46.134Z,19.82
2017-04-16T03:45:54.862Z,19.82
2017-04-16T03:47:03.626Z,19.79
2017-04-16T03:48:12.834Z,19.85
2017-04-16T03:49:21.902Z,19.86
2017-04-16T03:50:30.664Z,19.84
2017-04-16T03:51:39.426Z,19.85
2017-04-16T03:52:48.798Z,19.81
2017-04-16T03:53:58.481Z,19.84
2017-04-16T03:55:07.514Z,19.84
2017-04-16T03:56:16.545Z,19.86
2017-04-16T03:57:25.619Z,19.85
2017-04-16T03:58:34.699Z,19.89
2017-04-16T03:59:44.688Z,19.88
2017-04-16T04:00:53.763Z,19.82
2017-04-16T04:02:02.609Z,19.85
2017-04-16T04:03:11.879Z,19.85
2017-04-16T04:04:21.553Z,19.86
2017-04-16T04:05:30.955Z,19.85
2017-04-16T04:06:39.718Z,19.82
2017-04-16T04:07:49.090Z,19.92
2017-04-16T04:08:58.438Z,19.99
2017-04-16T04:10:07.198Z,19.89
2017-04-16T04:11:16.266Z,19.95
2017-04-16T04:12:25.043Z,19.99
2017-04-16T04:13:34.073Z,19.95
2017-04-16T04:14:43.673Z,20.03
2017-04-16T04:15:52.719Z,20.03
2017-04-16T04:17:02.582Z,19.96
2017-04-16T04:18:11.945Z,20.03
2017-04-16T04:19:21.322Z,20.06
2017-04-16T04:20:30.393Z,20.03
2017-04-16T04:21:39.464Z,20.02
2017-04-16T04:22:48.838Z,19.96
2017-04-16T04:23:58.199Z,20.04
2017-04-16T04:25:07.265Z,20.04
2017-04-16T04:26:15.989Z,20.18
2017-04-16T04:27:25.046Z,20.13
2017-04-16T04:28:33.785Z,20.09
2017-04-16T04:29:42.822Z,20.14
2017-04-16T04:30:51.858Z,20.14
2017-04-16T04:32:00.624Z,20.16
2017-04-16T04:33:09.681Z,20.11
2017-04-16T04:34:19.055Z,20.16
2017-04-16T04:35:28.122Z,20.14
2017-04-16T04:36:37.527Z,20.19
2017-04-16T04:37:46.910Z,20.14
2017-04-16T04:38:56.280Z,20.19
2017-04-16T04:40:04.991Z,20.14
2017-04-16T04:41:13.735Z,20.22
2017-04-16T04:42:23.420Z,20.21
2017-04-16T04:43:32.761Z,20.28
2017-04-16T04:44:41.837Z,20.21
2017-04-16T04:45:51.204Z,20.36
2017-04-16T04:46:59.962Z,20.28
2017-04-16T04:48:09.342Z,20.32
2017-04-16T04:49:18.115Z,20.25
2017-04-16T04:50:27.179Z,20.28
2017-04-16T04:51:36.551Z,20.34
2017-04-16T04:52:45.619Z,20.32
2017-04-16T04:53:54.677Z,20.36
2017-04-16T04:55:03.392Z,20.34
2017-04-16T04:56:12.440Z,20.31
2017-04-16T04:57:21.515Z,20.37
2017-04-16T04:58:30.575Z,20.41
2017-04-16T04:59:39.804Z,20.44
2017-04-16T05:00:48.849Z,20.44
2017-04-16T05:01:57.806Z,20.43
2017-04-16T05:03:07.489Z,20.47
2017-04-16T05:04:16.573Z,20.43
2017-04-16T05:05:25.708Z,20.48
2017-04-16T05:06:34.768Z,20.47
2017-04-16T05:07:44.381Z,20.48
2017-04-16T05:08:53.125Z,20.52
2017-04-16T05:10:02.803Z,20.48
2017-04-16T05:11:12.478Z,20.44
2017-04-16T05:12:21.556Z,20.51
2017-04-16T05:13:31.230Z,20.59
2017-04-16T05:14:40.604Z,20.43
2017-04-16T05:15:49.974Z,20.59
2017-04-16T05:16:58.733Z,20.62
2017-04-16T05:18:07.502Z,20.6
2017-04-16T05:19:16.872Z,20.59
2017-04-16T05:20:26.567Z,20.59
2017-04-16T05:21:35.307Z,20.65
2017-04-16T05:22:44.400Z,20.55
2017-04-16T05:23:53.767Z,20.62
2017-04-16T05:25:03.165Z,20.58
2017-04-16T05:26:11.921Z,20.47
2017-04-16T05:27:21.612Z,20.55
2017-04-16T05:28:30.674Z,20.56
2017-04-16T05:29:39.737Z,20.65
2017-04-16T05:30:48.789Z,20.65
2017-04-16T05:31:57.548Z,20.65
2017-04-16T05:33:06.577Z,20.67
2017-04-16T05:34:15.906Z,20.7
2017-04-16T05:35:25.249Z,20.72
2017-04-16T05:36:34.010Z,20.72
2017-04-16T05:37:43.400Z,20.65
2017-04-16T05:38:52.742Z,20.72
2017-04-16T05:40:01.791Z,20.77
2017-04-16T05:41:10.857Z,20.74
2017-04-16T05:42:19.596Z,20.77
2017-04-16T05:43:28.375Z,20.77
2017-04-16T05:44:38.352Z,20.8
2017-04-16T05:45:47.377Z,20.8
2017-04-16T05:46:56.114Z,20.78
2017-04-16T05:48:06.108Z,20.82
2017-04-16T05:49:14.874Z,20.78
2017-04-16T05:50:23.631Z,20.87
2017-04-16T05:51:32.699Z,20.9
2017-04-16T05:52:41.393Z,20.93
2017-04-16T05:53:50.736Z,20.9
2017-04-16T05:55:00.112Z,20.88
2017-04-16T05:56:09.596Z,20.92
2017-04-16T05:57:18.650Z,20.97
2017-04-16T05:58:27.906Z,20.97
2017-04-16T05:59:37.446Z,21.06
2017-04-16T06:00:46.571Z,21.03
2017-04-16T06:01:55.524Z,21.02
2017-04-16T06:03:04.734Z,21.07
2017-04-16T06:04:14.309Z,21.06
2017-04-16T06:05:23.370Z,21.06
2017-04-16T06:06:32.196Z,21.09
2017-04-16T06:07:41.568Z,21.03
2017-04-16T06:08:50.642Z,21.09
2017-04-16T06:09:59.717Z,21.11
2017-04-16T06:11:09.497Z,21.05
2017-04-16T06:12:18.265Z,21.15
2017-04-16T06:13:27.025Z,21.11
2017-04-16T06:14:35.757Z,21.07
2017-04-16T06:15:44.780Z,21.14
2017-04-16T06:16:53.845Z,21.12
2017-04-16T06:18:02.885Z,21.06
2017-04-16T06:19:12.229Z,21.07
2017-04-16T06:20:21.196Z,21.06
2017-04-16T06:21:29.953Z,21.18
2017-04-16T06:22:38.719Z,21.18
2017-04-16T06:23:48.355Z,21.2
2017-04-16T06:24:57.375Z,21.12
2017-04-16T06:26:06.458Z,21.17
2017-04-16T06:27:15.835Z,21.15
2017-04-16T06:28:25.222Z,21.2
2017-04-16T06:29:34.287Z,21.2
2017-04-16T06:30:43.351Z,21.21
2017-04-16T06:31:52.675Z,21.2
2017-04-16T06:33:02.021Z,21.25
2017-04-16T06:34:10.795Z,21.25
2017-04-16T06:35:19.825Z,21.22
2017-04-16T06:36:28.557Z,21.15
2017-04-16T06:37:37.630Z,21.2
2017-04-16T06:38:46.670Z,21.21
2017-04-16T06:39:56.028Z,21.18
2017-04-16T06:41:05.098Z,21.21
2017-04-16T06:42:13.873Z,21.21
2017-04-16T06:43:22.941Z,21.27
2017-04-16T06:44:32.009Z,21.2
2017-04-16T06:45:41.070Z,21.21
2017-04-16T06:46:50.156Z,21.2
2017-04-16T06:47:59.226Z,21.2
2017-04-16T06:49:08.603Z,21.27
2017-04-16T06:50:18.289Z,21.22
2017-04-16T06:51:27.058Z,21.18
2017-04-16T06:52:35.777Z,21.27
2017-04-16T06:53:45.135Z,21.3
2017-04-16T06:54:54.826Z,21.32
2017-04-16T06:56:04.165Z,21.21
2017-04-16T06:57:12.896Z,21.25
2017-04-16T06:58:22.535Z,21.21
2017-04-16T06:59:31.876Z,21.25
2017-04-16T07:00:40.958Z,21.35
2017-04-16T07:01:50.022Z,21.24
2017-04-16T07:02:58.741Z,21.29
2017-04-16T07:04:07.799Z,21.29
2017-04-16T07:05:17.842Z,21.24
2017-04-16T07:06:27.212Z,21.35
2017-04-16T07:07:36.245Z,21.36
2017-04-16T07:08:45.290Z,21.32
2017-04-16T07:09:54.658Z,21.32
2017-04-16T07:11:03.722Z,21.4
2017-04-16T07:12:12.586Z,21.3
2017-04-16T07:13:21.370Z,21.32
2017-04-16T07:14:30.453Z,21.33
2017-04-16T07:15:39.546Z,21.35
2017-04-16T07:16:48.581Z,21.29
2017-04-16T07:17:57.935Z,21.37
2017-04-16T07:19:07.610Z,21.36
2017-04-16T07:20:16.670Z,21.36
2017-04-16T07:21:25.444Z,21.37
2017-04-16T07:22:34.506Z,21.37
2017-04-16T07:23:43.721Z,21.4
2017-04-16T07:24:53.108Z,21.39
2017-04-16T07:26:02.259Z,21.43
2017-04-16T07:27:11.457Z,21.48
2017-04-16T07:28:21.007Z,21.48
2017-04-16T07:29:30.406Z,21.46
2017-04-16T07:30:39.589Z,21.45
2017-04-16T07:31:48.875Z,21.46
2017-04-16T07:32:58.539Z,21.45
2017-04-16T07:34:07.917Z,21.5
2017-04-16T07:35:16.952Z,21.51
2017-04-16T07:36:25.688Z,21.45
2017-04-16T07:37:34.449Z,21.43
2017-04-16T07:38:44.123Z,21.46
2017-04-16T07:39:53.799Z,21.46
2017-04-16T07:41:03.173Z,21.39
2017-04-16T07:42:12.235Z,21.4
2017-04-16T07:43:21.571Z,21.45
2017-04-16T07:44:30.611Z,21.45
2017-04-16T07:45:39.685Z,21.48
2017-04-16T07:46:48.467Z,21.46
2017-04-16T07:47:57.535Z,21.51
2017-04-16T07:49:06.866Z,21.52
2017-04-16T07:50:15.591Z,21.54
2017-04-16T07:51:24.361Z,21.61
2017-04-16T07:52:33.443Z,21.55
2017-04-16T07:53:42.827Z,21.6
2017-04-16T07:54:52.210Z,21.7
2017-04-16T07:56:01.576Z,21.62
2017-04-16T07:57:10.287Z,21.72
2017-04-16T07:58:19.332Z,21.8
2017-04-16T07:59:29.013Z,21.75
2017-04-16T08:00:38.270Z,21.89
2017-04-16T08:01:47.045Z,21.83
2017-04-16T08:02:55.813Z,21.92
2017-04-16T08:04:05.192Z,21.96
2017-04-16T08:05:14.253Z,21.98
2017-04-16T08:06:22.993Z,22.02
2017-04-16T08:07:32.068Z,21.96
2017-04-16T08:08:41.449Z,21.99
2017-04-16T08:09:50.503Z,22.08
2017-04-16T08:10:59.470Z,22.14
2017-04-16T08:12:08.199Z,22.04
2017-04-16T08:13:17.239Z,22.17
2017-04-16T08:14:26.615Z,22.14
2017-04-16T08:15:35.683Z,22.2
2017-04-16T08:16:44.714Z,22.23
2017-04-16T08:17:53.449Z,22.26
2017-04-16T08:19:03.429Z,22.22
2017-04-16T08:20:12.766Z,22.41
2017-04-16T08:21:21.502Z,22.39
2017-04-16T08:22:30.270Z,22.43
2017-04-16T08:23:39.033Z,22.41
2017-04-16T08:24:47.798Z,22.43
2017-04-16T08:25:57.178Z,22.39
2017-04-16T08:27:06.249Z,22.43
2017-04-16T08:28:15.626Z,22.51
2017-04-16T08:29:24.697Z,22.54
2017-04-16T08:30:33.779Z,22.55
2017-04-16T08:31:42.845Z,22.6
2017-04-16T08:32:51.609Z,22.54
2017-04-16T08:34:00.686Z,22.55
2017-04-16T08:35:09.471Z,22.54
2017-04-16T08:36:18.337Z,22.57
2017-04-16T08:37:27.111Z,22.63
2017-04-16T08:38:35.882Z,22.59
2017-04-16T08:39:45.251Z,22.66
2017-04-16T08:40:54.632Z,22.62
2017-04-16T08:42:04.169Z,22.66
2017-04-16T08:43:13.172Z,22.68
2017-04-16T08:44:21.869Z,22.63
2017-04-16T08:45:30.912Z,22.68
2017-04-16T08:46:39.969Z,22.69
2017-04-16T08:47:48.733Z,22.72
2017-04-16T08:48:57.803Z,22.7
2017-04-16T08:50:06.913Z,22.69
2017-04-16T08:51:16.296Z,22.75
2017-04-16T08:52:25.051Z,22.72
2017-04-16T08:53:34.381Z,22.69
2017-04-16T08:54:43.762Z,22.75
2017-04-16T08:55:53.771Z,22.66
2017-04-16T08:57:02.571Z,22.66
2017-04-16T08:58:11.648Z,22.65
2017-04-16T08:59:21.408Z,22.66
2017-04-16T09:00:30.182Z,22.65
2017-04-16T09:01:39.411Z,22.69
2017-04-16T09:02:48.480Z,22.63
2017-04-16T09:03:57.855Z,22.7
2017-04-16T09:05:06.924Z,22.68
2017-04-16T09:06:15.997Z,22.8
2017-04-16T09:07:25.360Z,22.73
2017-04-16T09:08:34.742Z,22.7
2017-04-16T09:09:44.123Z,22.66
2017-04-16T09:10:53.189Z,22.66
2017-04-16T09:12:01.943Z,22.68
2017-04-16T09:13:10.702Z,22.69
2017-04-16T09:14:19.781Z,22.53
2017-04-16T09:15:28.849Z,22.55
2017-04-16T09:16:37.918Z,22.53
2017-04-16T09:17:46.945Z,22.62
2017-04-16T09:18:56.591Z,22.69
2017-04-16T09:20:05.858Z,22.69
2017-04-16T09:21:15.235Z,22.8
2017-04-16T09:22:24.283Z,22.84
2017-04-16T09:23:33.321Z,22.93
2017-04-16T09:24:43.011Z,22.94
2017-04-16T09:25:52.114Z,22.91
2017-04-16T09:27:01.194Z,22.98
2017-04-16T09:28:09.950Z,22.96
2017-04-16T09:29:19.325Z,22.98
2017-04-16T09:30:28.041Z,22.98
2017-04-16T09:31:37.036Z,22.84
2017-04-16T09:32:45.760Z,22.81
2017-04-16T09:33:55.742Z,22.85
2017-04-16T09:35:04.508Z,22.84
2017-04-16T09:36:13.588Z,22.75
2017-04-16T09:37:22.377Z,22.78
2017-04-16T09:38:31.145Z,22.8
2017-04-16T09:39:40.212Z,22.78
2017-04-16T09:40:49.583Z,22.76
2017-04-16T09:41:58.852Z,22.76
2017-04-16T09:43:07.918Z,22.85
2017-04-16T09:44:16.993Z,22.76
2017-04-16T09:45:26.363Z,22.8
2017-04-16T09:46:35.132Z,22.8
2017-04-16T09:47:43.892Z,22.8
2017-04-16T09:48:52.965Z,22.7
2017-04-16T09:50:02.343Z,22.75
2017-04-16T09:51:11.110Z,22.7
2017-04-16T09:52:19.839Z,22.73
2017-04-16T09:53:28.888Z,22.69
2017-04-16T09:54:37.968Z,22.63
2017-04-16T09:55:47.298Z,22.62
2017-04-16T09:56:56.086Z,22.54
2017-04-16T09:58:05.216Z,22.57
2017-04-16T09:59:14.441Z,22.45
2017-04-16T10:00:23.515Z,22.45
2017-04-16T10:01:32.962Z,22.44
2017-04-16T10:02:41.889Z,22.36
2017-04-16T10:03:51.237Z,22.38
2017-04-16T10:05:00.654Z,22.43
2017-04-16T10:06:09.699Z,22.41
2017-04-16T10:07:19.123Z,22.28
2017-04-16T10:08:28.842Z,22.29
2017-04-16T10:09:37.918Z,22.28
2017-04-16T10:10:46.649Z,22.28
2017-04-16T10:11:55.687Z,22.26
2017-04-16T10:13:04.658Z,22.28
2017-04-16T10:14:13.412Z,22.25
2017-04-16T10:15:22.784Z,22.23
2017-04-16T10:16:31.547Z,22.2
2017-04-16T10:17:40.938Z,22.25
2017-04-16T10:18:50.831Z,22.2
2017-04-16T10:20:00.209Z,22.22
2017-04-16T10:21:08.974Z,22.18
2017-04-16T10:22:18.049Z,22.33
2017-04-16T10:23:27.114Z,22.36
2017-04-16T10:24:36.392Z,22.39
2017-04-16T10:25:45.461Z,22.5
2017-04-16T10:26:54.536Z,22.68
2017-04-16T10:28:03.602Z,22.73
2017-04-16T10:29:12.968Z,22.66
2017-04-16T10:30:22.048Z,22.8
2017-04-16T10:31:30.811Z,22.78
2017-04-16T10:32:39.578Z,22.7
2017-04-16T10:33:49.578Z,22.69
2017-04-16T10:34:58.641Z,22.75
2017-04-16T10:36:08.069Z,22.75
2017-04-16T10:37:16.919Z,22.68
2017-04-16T10:38:25.988Z,22.65
2017-04-16T10:39:34.756Z,22.57
2017-04-16T10:40:43.521Z,22.6
2017-04-16T10:41:52.591Z,22.69
2017-04-16T10:43:01.659Z,22.63
2017-04-16T10:44:10.376Z,22.81
2017-04-16T10:45:19.775Z,22.75
2017-04-16T10:46:28.817Z,22.83
2017-04-16T10:47:38.163Z,22.99
2017-04-16T10:48:47.852Z,23.15
2017-04-16T10:49:56.929Z,23.43
2017-04-16T10:51:06.008Z,23.73
2017-04-16T10:52:14.967Z,23.92
2017-04-16T10:53:23.689Z,24.33
2017-04-16T10:54:32.728Z,24.69
2017-04-16T10:55:42.193Z,25.1
2017-04-16T10:56:51.109Z,25.48
2017-04-16T10:58:00.224Z,25.88
2017-04-16T10:59:10.181Z,26.31
2017-04-16T11:00:19.640Z,26.63
2017-04-16T11:01:28.558Z,26.95
2017-04-16T11:02:37.332Z,27.36
2017-04-16T11:03:46.708Z,27.67
2017-04-16T11:04:56.354Z,27.93
2017-04-16T11:06:06.005Z,28.27
2017-04-16T11:07:14.757Z,28.7
2017-04-16T11:08:23.832Z,28.93
2017-04-16T11:09:32.836Z,28.81
2017-04-16T11:10:41.600Z,28.64
2017-04-16T11:11:50.370Z,28.32
2017-04-16T11:12:59.753Z,27.93
2017-04-16T11:14:08.805Z,27.77
2017-04-16T11:15:18.153Z,27.49
2017-04-16T11:16:26.930Z,27.18
2017-04-16T11:17:36.016Z,26.96
2017-04-16T11:18:46.005Z,26.74
2017-04-16T11:19:55.391Z,26.56
2017-04-16T11:21:04.166Z,26.34
2017-04-16T11:22:13.280Z,26.09
2017-04-16T11:23:22.362Z,25.95
2017-04-16T11:24:31.437Z,25.78
2017-04-16T11:25:40.156Z,25.62
2017-04-16T11:26:49.462Z,25.43
2017-04-16T11:27:58.508Z,25.26
2017-04-16T11:29:07.844Z,25.08
2017-04-16T11:30:17.432Z,24.96
2017-04-16T11:31:26.201Z,24.8
2017-04-16T11:32:35.232Z,24.65
2017-04-16T11:33:44.285Z,24.63
2017-04-16T11:34:54.284Z,24.45
2017-04-16T11:36:03.349Z,24.33
2017-04-16T11:37:12.631Z,24.2
2017-04-16T11:38:21.897Z,24.24
2017-04-16T11:39:30.960Z,24.02
2017-04-16T11:40:39.722Z,23.91
2017-04-16T11:41:48.784Z,23.78
2017-04-16T11:42:57.868Z,23.76
2017-04-16T11:44:06.900Z,23.73
2017-04-16T11:45:15.963Z,23.68
2017-04-16T11:46:24.728Z,23.56
2017-04-16T11:47:34.101Z,23.5
2017-04-16T11:48:43.783Z,23.55
2017-04-16T11:49:53.178Z,23.44
2017-04-16T11:51:02.721Z,23.28
2017-04-16T11:52:11.750Z,23.23
2017-04-16T11:53:20.919Z,23.25
2017-04-16T11:54:30.595Z,23.15
2017-04-16T11:55:39.350Z,23.13
2017-04-16T11:56:48.234Z,23.09
2017-04-16T11:57:57.286Z,23.03
2017-04-16T11:59:06.089Z,22.9
2017-04-16T12:00:15.160Z,22.9
2017-04-16T12:01:25.341Z,22.85
2017-04-16T12:02:34.078Z,22.83
2017-04-16T12:03:43.154Z,22.8
2017-04-16T12:04:52.230Z,22.72
2017-04-16T12:06:01.599Z,22.69
2017-04-16T12:07:10.973Z,22.72
2017-04-16T12:08:19.754Z,22.66
2017-04-16T12:09:28.830Z,22.68
2017-04-16T12:10:37.892Z,22.66
2017-04-16T12:11:46.616Z,22.69
2017-04-16T12:12:55.672Z,22.62
2017-04-16T12:14:04.748Z,22.62
2017-04-16T12:15:14.120Z,22.59
2017-04-16T12:16:23.160Z,22.55
2017-04-16T12:17:32.502Z,22.59
2017-04-16T12:18:41.579Z,22.63
2017-04-16T12:19:50.651Z,22.6
2017-04-16T12:21:00.028Z,22.66
2017-04-16T12:22:09.404Z,22.57
2017-04-16T12:23:18.636Z,22.54
2017-04-16T12:24:28.338Z,22.6
2017-04-16T12:25:37.067Z,22.53
2017-04-16T12:26:45.799Z,22.51
2017-04-16T12:27:54.830Z,22.45
2017-04-16T12:29:04.141Z,22.41
2017-04-16T12:30:13.761Z,22.45
2017-04-16T12:31:23.101Z,22.39
2017-04-16T12:32:32.050Z,22.36
2017-04-16T12:33:41.133Z,22.41
2017-04-16T12:34:50.203Z,22.36
2017-04-16T12:35:59.264Z,22.41
2017-04-16T12:37:08.344Z,22.43
2017-04-16T12:38:17.721Z,22.35
2017-04-16T12:39:27.109Z,22.39
2017-04-16T12:40:36.181Z,22.33
2017-04-16T12:41:45.212Z,22.38
2017-04-16T12:42:54.557Z,22.44
2017-04-16T12:44:04.193Z,22.41
2017-04-16T12:45:13.846Z,22.45
2017-04-16T12:46:23.212Z,22.45
2017-04-16T12:47:32.254Z,22.45
2017-04-16T12:48:41.621Z,22.54
2017-04-16T12:49:50.651Z,22.5
2017-04-16T12:50:59.990Z,22.54
2017-04-16T12:52:09.323Z,22.54
2017-04-16T12:53:18.597Z,22.53
2017-04-16T12:54:27.796Z,22.51
2017-04-16T12:55:36.942Z,22.6
2017-04-16T12:56:46.332Z,22.6
2017-04-16T12:57:55.389Z,22.68
2017-04-16T12:59:04.463Z,22.69
2017-04-16T13:00:13.850Z,22.75
2017-04-16T13:01:22.606Z,22.68
2017-04-16T13:02:31.372Z,22.65
2017-04-16T13:03:40.640Z,22.69
2017-04-16T13:04:50.278Z,22.73
2017-04-16T13:05:59.314Z,22.72
2017-04-16T13:07:08.386Z,22.7
2017-04-16T13:08:17.751Z,22.73
2017-04-16T13:09:27.390Z,22.76
2017-04-16T13:10:36.096Z,22.7
2017-04-16T13:11:45.139Z,22.63
2017-04-16T13:12:54.834Z,22.62
2017-04-16T13:14:03.919Z,22.62
2017-04-16T13:15:12.959Z,22.51
2017-04-16T13:16:22.309Z,22.47
2017-04-16T13:17:31.080Z,22.44
2017-04-16T13:18:40.154Z,22.45
2017-04-16T13:19:48.886Z,22.41
2017-04-16T13:20:57.630Z,22.39
2017-04-16T13:22:06.395Z,22.43
2017-04-16T13:23:15.501Z,22.39
2017-04-16T13:24:24.567Z,22.39
2017-04-16T13:25:33.387Z,22.36
2017-04-16T13:26:42.458Z,22.36
2017-04-16T13:27:51.528Z,22.38
2017-04-16T13:29:00.603Z,22.36
2017-04-16T13:30:09.323Z,22.32
2017-04-16T13:31:18.063Z,22.36
2017-04-16T13:32:26.793Z,22.41
2017-04-16T13:33:35.833Z,22.35
2017-04-16T13:34:44.917Z,22.35
2017-04-16T13:35:54.181Z,22.39
2017-04-16T13:37:02.914Z,22.38
2017-04-16T13:38:12.581Z,22.39
2017-04-16T13:39:21.954Z,22.36
2017-04-16T13:40:30.693Z,22.35
2017-04-16T13:41:39.765Z,22.38
2017-04-16T13:42:48.521Z,22.39
2017-04-16T13:43:58.209Z,22.41
2017-04-16T13:45:07.267Z,22.33
2017-04-16T13:46:16.002Z,22.29
2017-04-16T13:47:25.076Z,22.26
2017-04-16T13:48:34.163Z,22.3
2017-04-16T13:49:43.777Z,22.23
2017-04-16T13:50:53.462Z,22.26
2017-04-16T13:52:02.837Z,22.18
2017-04-16T13:53:11.564Z,22.2
2017-04-16T13:54:20.383Z,22.17
2017-04-16T13:55:29.628Z,22.15
2017-04-16T13:56:38.392Z,22.23
2017-04-16T13:57:48.055Z,22.2
2017-04-16T13:58:57.104Z,22.18
2017-04-16T14:00:05.868Z,22.17
2017-04-16T14:01:14.933Z,22.15
2017-04-16T14:02:24.022Z,22.23
2017-04-16T14:03:32.794Z,22.13
2017-04-16T14:04:41.827Z,22.18
2017-04-16T14:05:50.566Z,22.26
2017-04-16T14:06:59.600Z,22.2
2017-04-16T14:08:08.626Z,22.26
2017-04-16T14:09:17.707Z,22.25
2017-04-16T14:10:27.084Z,22.25
2017-04-16T14:11:36.161Z,22.28
2017-04-16T14:12:46.143Z,22.29
2017-04-16T14:13:55.824Z,22.26
2017-04-16T14:15:05.464Z,22.28
2017-04-16T14:16:14.500Z,22.25
2017-04-16T14:17:23.583Z,22.22
2017-04-16T14:18:32.854Z,22.22
2017-04-16T14:19:41.923Z,22.15
2017-04-16T14:20:51.003Z,22.18
2017-04-16T14:21:59.721Z,22.1
2017-04-16T14:23:09.659Z,22.18
2017-04-16T14:24:18.363Z,22.13
2017-04-16T14:25:28.023Z,22.08
2017-04-16T14:26:36.795Z,22.18
2017-04-16T14:27:45.825Z,22.18
2017-04-16T14:28:55.177Z,22.13
2017-04-16T14:30:04.246Z,22.02
2017-04-16T14:31:13.010Z,22.02
2017-04-16T14:32:22.079Z,22.04
2017-04-16T14:33:31.135Z,22.15
2017-04-16T14:34:40.163Z,22.08
2017-04-16T14:35:49.199Z,22.13
2017-04-16T14:36:58.268Z,22.07
2017-04-16T14:38:07.028Z,22.1
2017-04-16T14:39:16.399Z,22.08
2017-04-16T14:40:25.426Z,22.13
2017-04-16T14:41:34.433Z,22.06
2017-04-16T14:42:43.679Z,22.06
2017-04-16T14:43:52.750Z,22.07
2017-04-16T14:45:01.516Z,22.06
2017-04-16T14:46:10.282Z,22.11
2017-04-16T14:47:19.656Z,22.08
2017-04-16T14:48:29.294Z,22.08
2017-04-16T14:49:39.243Z,22.15
2017-04-16T14:50:48.019Z,22.11
2017-04-16T14:51:57.642Z,22.08
2017-04-16T14:53:06.934Z,22.15
2017-04-16T14:54:15.769Z,22.11